createdAt,value
2018-08-02T00:01:01.228Z,69.30
2018-08-02T00:06:05.468Z,67.90
2018-08-02T00:11:09.478Z,67.40
2018-08-02T00:16:13.241Z,66.50
2018-08-02T00:21:17.464Z,64.90
2018-08-02T00:26:21.051Z,64.90
2018-08-02T00:31:24.962Z,63.90
2018-08-02T00:36:28.591Z,64.20
2018-08-02T00:41:32.230Z,64.50
2018-08-02T00:46:36.635Z,65.00
2018-08-02T00:51:40.494Z,66.00
2018-08-02T00:56:44.229Z,66.10
2018-08-02T01:01:47.815Z,66.90
2018-08-02T01:06:51.622Z,67.10
2018-08-02T01:11:55.150Z,63.30
2018-08-02T01:16:58.758Z,63.70
2018-08-02T01:22:03.318Z,63.70
2018-08-02T01:27:07.209Z,63.40
2018-08-02T01:32:10.730Z,62.60
2018-08-02T01:37:14.310Z,61.50
2018-08-02T01:42:19.083Z,62.20
2018-08-02T01:47:25.538Z,62.30
2018-08-02T01:52:29.177Z,62.70
2018-08-02T01:57:32.752Z,63.00
2018-08-02T02:02:43.992Z,63.40
2018-08-02T02:07:47.871Z,63.70
2018-08-02T02:12:51.470Z,64.10
2018-08-02T02:17:55.443Z,63.70
2018-08-02T02:22:59.044Z,64.00
2018-08-02T02:28:07.819Z,64.20
2018-08-02T02:33:11.875Z,64.30
2018-08-02T02:38:16.425Z,65.20
2018-08-02T02:43:20.360Z,64.60
2018-08-02T02:48:23.966Z,64.50
2018-08-02T02:53:27.519Z,64.30
2018-08-02T02:58:31.448Z,63.80
2018-08-02T03:03:35.495Z,64.70
2018-08-02T03:08:40.497Z,65.10
2018-08-02T03:13:44.105Z,64.90
2018-08-02T03:18:47.698Z,65.20
2018-08-02T03:28:54.466Z,65.10
2018-08-02T03:34:04.040Z,65.10
2018-08-02T03:39:09.421Z,65.40
2018-08-02T03:44:13.296Z,65.90
2018-08-02T03:49:16.867Z,66.50
2018-08-02T03:54:20.492Z,66.50
2018-08-02T03:59:26.544Z,66.40
2018-08-02T04:04:30.519Z,66.60
2018-08-02T04:09:34.107Z,66.70
2018-08-02T04:14:39.528Z,67.40
2018-08-02T04:19:43.391Z,68.30
2018-08-02T04:24:46.977Z,67.80
2018-08-02T04:29:50.864Z,67.50
2018-08-02T04:34:55.576Z,67.60
2018-08-02T04:39:59.116Z,67.20
2018-08-02T04:45:02.799Z,67.20
2018-08-02T04:50:07.051Z,67.70
2018-08-02T05:00:15.307Z,68.70
2018-08-02T05:05:18.850Z,68.50
2018-08-02T05:10:22.418Z,68.50
2018-08-02T05:15:26.022Z,67.90
2018-08-02T05:20:29.571Z,67.70
2018-08-02T05:25:33.107Z,67.80
2018-08-02T05:30:36.683Z,68.30
2018-08-02T05:35:40.795Z,68.10
2018-08-02T05:40:44.236Z,68.20
2018-08-02T05:45:47.820Z,67.40
2018-08-02T05:50:51.373Z,67.10
2018-08-02T05:55:54.916Z,66.70
2018-08-02T06:00:58.822Z,66.80
2018-08-02T06:06:02.412Z,66.70
2018-08-02T06:11:06.231Z,66.40
2018-08-02T06:21:13.380Z,65.30
2018-08-02T06:26:17.164Z,64.80
2018-08-02T06:31:21.060Z,64.80
2018-08-02T06:36:24.984Z,64.80
2018-08-02T06:41:28.593Z,63.20
2018-08-02T06:46:32.284Z,63.00
2018-08-02T06:51:36.097Z,62.40
2018-08-02T06:56:39.662Z,61.70
2018-08-02T07:01:43.205Z,61.00
2018-08-02T07:06:46.768Z,59.70
2018-08-02T07:11:50.423Z,60.40
2018-08-02T07:21:57.224Z,59.20
2018-08-02T07:27:00.762Z,59.00
2018-08-02T07:32:04.810Z,57.30
2018-08-02T07:37:08.392Z,57.90
2018-08-02T07:42:11.967Z,56.90
2018-08-02T07:47:15.599Z,56.80
2018-08-02T07:52:19.168Z,56.30
2018-08-02T07:57:23.496Z,56.10
2018-08-02T08:02:27.064Z,55.80
2018-08-02T08:07:30.651Z,55.50
2018-08-02T08:12:37.160Z,54.60
2018-08-02T08:17:40.782Z,54.60
2018-08-02T08:22:44.829Z,53.30
2018-08-02T08:27:48.361Z,53.00
2018-08-02T08:32:52.501Z,52.10
2018-08-02T08:37:56.110Z,51.30
2018-08-02T08:43:00.206Z,52.70
2018-08-02T08:48:03.817Z,52.60
2018-08-02T08:53:07.678Z,51.40
2018-08-02T09:03:16.714Z,51.60
2018-08-02T09:08:20.883Z,52.30
2018-08-02T09:13:24.690Z,52.80
2018-08-02T09:18:28.298Z,52.90
2018-08-02T09:23:31.912Z,53.00
2018-08-02T09:28:39.942Z,52.50
2018-08-02T09:33:43.492Z,50.70
2018-08-02T09:38:47.031Z,51.30
2018-08-02T09:43:50.620Z,50.70
2018-08-02T09:48:55.338Z,47.50
2018-08-02T09:53:58.887Z,47.00
2018-08-02T09:59:03.594Z,44.50
2018-08-02T10:04:07.284Z,44.70
2018-08-02T10:09:12.489Z,44.10
2018-08-02T10:14:17.947Z,43.20
2018-08-02T10:19:21.836Z,42.50
2018-08-02T10:24:25.421Z,42.60
2018-08-02T10:29:29.010Z,42.30
2018-08-02T10:39:35.822Z,40.50
2018-08-02T10:44:40.166Z,39.40
2018-08-02T10:49:44.689Z,39.70
2018-08-02T10:54:48.350Z,38.10
2018-08-02T10:59:51.950Z,39.90
2018-08-02T11:04:55.502Z,37.80
2018-08-02T11:10:00.000Z,36.70
2018-08-02T11:15:03.762Z,36.10
2018-08-02T11:20:07.312Z,35.80
2018-08-02T11:25:10.870Z,36.70
2018-08-02T11:30:14.395Z,35.00
2018-08-02T11:35:17.914Z,34.40
2018-08-02T11:40:22.408Z,32.50
2018-08-02T11:45:25.960Z,32.80
2018-08-02T11:50:29.514Z,33.00
2018-08-02T11:55:33.663Z,32.30
2018-08-02T12:00:37.215Z,32.40
2018-08-02T12:05:42.656Z,32.70
2018-08-02T12:10:46.487Z,33.40
2018-08-02T12:15:51.246Z,32.20
2018-08-02T12:20:54.907Z,34.20
2018-08-02T12:25:58.511Z,34.80
2018-08-02T12:31:02.953Z,34.90
2018-08-02T12:36:06.495Z,35.20
2018-08-02T12:41:11.996Z,33.70
2018-08-02T12:46:15.574Z,33.60
2018-08-02T12:51:20.959Z,33.30
2018-08-02T12:56:24.542Z,32.20
2018-08-02T13:01:28.919Z,32.40
2018-08-02T13:06:32.527Z,33.10
2018-08-02T13:11:36.808Z,33.00
2018-08-02T13:16:40.360Z,32.80
2018-08-02T13:21:43.915Z,31.90
2018-08-02T13:26:47.478Z,32.10
2018-08-02T13:31:51.108Z,30.90
2018-08-02T13:36:55.466Z,30.30
2018-08-02T13:41:59.080Z,29.90
2018-08-02T13:47:02.658Z,28.10
2018-08-02T13:52:07.307Z,28.80
2018-08-02T13:57:10.866Z,28.20
2018-08-02T14:02:16.627Z,27.00
2018-08-02T14:07:20.210Z,27.50
2018-08-02T14:12:23.791Z,27.90
2018-08-02T14:17:27.498Z,27.60
2018-08-02T14:22:31.465Z,26.60
2018-08-02T14:27:34.863Z,27.00
2018-08-02T14:32:38.392Z,27.40
2018-08-02T14:37:41.935Z,27.10
2018-08-02T14:42:45.515Z,27.30
2018-08-02T14:47:49.467Z,28.40
2018-08-02T14:52:53.464Z,28.30
2018-08-02T14:57:57.375Z,28.50
2018-08-02T15:03:00.950Z,28.90
2018-08-02T15:08:04.676Z,28.60
2018-08-02T15:13:08.324Z,28.90
2018-08-02T15:18:11.920Z,29.00
2018-08-02T15:23:15.480Z,28.90
2018-08-02T15:28:20.343Z,27.90
2018-08-02T15:33:24.558Z,28.30
2018-08-02T15:38:28.555Z,27.60
2018-08-02T15:43:32.127Z,28.30
2018-08-02T15:48:35.672Z,29.10
2018-08-02T15:53:39.213Z,28.80
2018-08-02T15:58:42.752Z,29.00
2018-08-02T16:03:46.560Z,29.40
2018-08-02T16:08:50.268Z,29.90
2018-08-02T16:13:53.802Z,30.00
2018-08-02T16:18:57.322Z,29.80
2018-08-02T16:24:00.889Z,30.10
2018-08-02T16:29:06.360Z,31.30
2018-08-02T16:34:10.179Z,29.90
2018-08-02T16:39:13.735Z,29.70
2018-08-02T16:44:18.806Z,30.20
2018-08-02T16:49:28.668Z,30.40
2018-08-02T16:54:32.222Z,30.70
2018-08-02T16:59:35.758Z,31.50
2018-08-02T17:04:39.588Z,31.70
2018-08-02T17:09:43.214Z,31.30
2018-08-02T17:14:47.543Z,31.20
2018-08-02T17:19:51.050Z,30.90
2018-08-02T17:24:55.169Z,31.00
2018-08-02T17:29:58.947Z,31.20
2018-08-02T17:35:02.483Z,31.50
2018-08-02T17:40:06.135Z,31.40
2018-08-02T17:45:10.276Z,31.00
2018-08-02T17:50:14.037Z,31.80
2018-08-02T17:55:17.588Z,31.90
2018-08-02T18:00:21.129Z,32.30
2018-08-02T18:05:25.127Z,33.10
2018-08-02T18:10:28.678Z,33.10
2018-08-02T18:15:32.295Z,33.60
2018-08-02T18:20:36.030Z,33.00
2018-08-02T18:25:39.844Z,34.30
2018-08-02T18:30:43.560Z,36.20
2018-08-02T18:35:46.980Z,35.90
2018-08-02T18:45:54.184Z,33.60
2018-08-02T18:50:57.735Z,34.20
2018-08-02T18:56:01.291Z,34.50
2018-08-02T19:01:05.099Z,34.70
2018-08-02T19:06:08.743Z,35.30
2018-08-02T19:11:12.320Z,36.50
2018-08-02T19:16:16.007Z,37.70
2018-08-02T19:21:19.565Z,39.00
2018-08-02T19:26:23.098Z,40.70
2018-08-02T19:31:26.739Z,41.10
2018-08-02T19:36:30.296Z,41.60
2018-08-02T19:41:55.146Z,42.30
2018-08-02T19:46:59.275Z,42.70
2018-08-02T19:52:06.259Z,43.40
2018-08-02T19:57:10.185Z,43.90
2018-08-02T20:02:13.908Z,44.40
2018-08-02T20:07:17.439Z,44.40
2018-08-02T20:12:21.088Z,44.70
2018-08-02T20:17:24.852Z,44.60
2018-08-02T20:22:28.398Z,44.20
2018-08-02T20:27:31.991Z,44.00
2018-08-02T20:32:35.512Z,44.00
2018-08-02T20:37:39.085Z,44.00
2018-08-02T20:42:46.342Z,43.80
2018-08-02T20:47:49.951Z,43.70
2018-08-02T20:52:53.572Z,43.30
2018-08-02T20:57:57.392Z,43.50
2018-08-02T21:03:02.648Z,43.00
2018-08-02T21:08:06.209Z,43.90
2018-08-02T21:13:09.874Z,43.80
2018-08-02T21:18:13.379Z,43.50
2018-08-02T21:23:16.944Z,43.50
2018-08-02T21:28:20.479Z,43.70
2018-08-02T21:33:24.266Z,42.80
2018-08-02T21:38:28.479Z,44.40
2018-08-02T21:43:32.320Z,44.10
2018-08-02T21:48:36.581Z,43.70
2018-08-02T21:58:43.339Z,43.30
2018-08-02T22:03:46.895Z,43.70
2018-08-02T22:08:50.748Z,44.20
2018-08-02T22:13:55.378Z,45.00
2018-08-02T22:18:58.951Z,45.40
2018-08-02T22:24:02.498Z,45.50
2018-08-02T22:29:06.725Z,45.00
2018-08-02T22:34:10.257Z,44.10
2018-08-02T22:39:13.798Z,44.70
2018-08-02T22:44:17.458Z,44.50
2018-08-02T22:49:21.010Z,44.80
2018-08-02T22:54:24.604Z,44.80
2018-08-02T22:59:29.129Z,44.80
2018-08-02T23:04:32.726Z,44.90
2018-08-02T23:09:37.006Z,45.20
2018-08-02T23:14:41.028Z,45.30
2018-08-02T23:19:44.603Z,46.10
2018-08-02T23:24:48.350Z,46.80
2018-08-02T23:29:51.890Z,47.00
2018-08-02T23:34:55.464Z,47.90
2018-08-02T23:39:59.161Z,47.50
2018-08-02T23:45:04.807Z,47.50
2018-08-02T23:50:08.489Z,47.90
2018-08-02T23:55:12.396Z,49.10
